createdAt,value
2023-03-28T00:00:20.490Z,86.87
2023-03-28T00:01:22.018Z,86.33
2023-03-28T00:02:24.476Z,86.38
2023-03-28T00:03:29.280Z,86.05
2023-03-28T00:04:31.861Z,85.87
2023-03-28T00:05:33.472Z,85.96
2023-03-28T00:06:36.011Z,86.18
2023-03-28T00:07:38.377Z,86.15
2023-03-28T00:08:41.685Z,86.32
2023-03-28T00:09:43.397Z,86.46
2023-03-28T00:10:46.483Z,86.60
2023-03-28T00:11:48.388Z,86.50
2023-03-28T00:12:50.913Z,86.22
2023-03-28T00:13:57.997Z,86.11
2023-03-28T00:15:01.000Z,86.65
2023-03-28T00:16:06.375Z,86.54
2023-03-28T00:17:09.192Z,86.10
2023-03-28T00:18:11.713Z,86.15
2023-03-28T00:19:18.032Z,85.83
2023-03-28T00:20:19.962Z,85.82
2023-03-28T00:21:25.044Z,84.85
2023-03-28T00:22:30.624Z,85.22
2023-03-28T00:23:33.938Z,85.18
2023-03-28T00:24:38.783Z,85.19
2023-03-28T00:25:41.988Z,85.36
2023-03-28T00:26:45.157Z,85.54
2023-03-28T00:27:47.807Z,84.73
2023-03-28T00:28:49.361Z,84.20
2023-03-28T00:29:51.995Z,84.36
2023-03-28T00:30:53.604Z,84.18
2023-03-28T00:31:56.650Z,83.98
2023-03-28T00:32:58.719Z,84.13
2023-03-28T00:34:01.198Z,83.45
2023-03-28T00:35:04.768Z,83.59
2023-03-28T00:36:10.354Z,83.48
2023-03-28T00:37:17.257Z,83.37
2023-03-28T00:38:18.852Z,83.08
2023-03-28T00:39:21.628Z,82.81
2023-03-28T00:40:24.114Z,82.91
2023-03-28T00:41:31.363Z,82.59
2023-03-28T00:42:32.967Z,83.27
2023-03-28T00:43:40.896Z,83.30
2023-03-28T00:44:48.014Z,83.44
2023-03-28T00:46:02.458Z,83.09
2023-03-28T00:47:17.482Z,82.93
2023-03-28T00:48:19.973Z,83.13
2023-03-28T00:49:25.099Z,83.52
2023-03-28T00:50:32.379Z,83.56
2023-03-28T00:51:37.953Z,83.24
2023-03-28T00:52:44.884Z,83.44
2023-03-28T00:53:47.483Z,83.49
2023-03-28T00:54:50.048Z,83.11
2023-03-28T00:55:57.288Z,83.40
2023-03-28T00:57:03.177Z,83.66
2023-03-28T00:58:10.010Z,84.38
2023-03-28T00:59:16.684Z,83.33
2023-03-28T01:00:19.183Z,83.75
2023-03-28T01:01:22.000Z,83.05
2023-03-28T01:02:23.752Z,83.30
2023-03-28T01:03:30.490Z,83.46
2023-03-28T01:04:36.846Z,83.94
2023-03-28T01:05:41.967Z,83.70
2023-03-28T01:06:46.365Z,84.07
2023-03-28T01:07:52.470Z,83.89
2023-03-28T01:08:54.604Z,84.20
2023-03-28T01:09:57.611Z,84.05
2023-03-28T01:10:59.593Z,84.06
2023-03-28T01:12:02.486Z,84.28
2023-03-28T01:13:05.580Z,84.50
2023-03-28T01:14:13.357Z,85.03
2023-03-28T01:15:15.255Z,84.41
2023-03-28T01:16:20.763Z,84.22
2023-03-28T01:17:22.313Z,83.69
2023-03-28T01:18:25.033Z,83.81
2023-03-28T01:19:37.581Z,84.47
2023-03-28T01:21:21.845Z,84.39
2023-03-28T01:22:41.146Z,85.11
2023-03-28T01:24:23.178Z,84.04
2023-03-28T01:25:48.885Z,83.65
2023-03-28T01:26:55.454Z,83.05
2023-03-28T01:28:05.414Z,83.88
2023-03-28T01:29:44.778Z,83.85
2023-03-28T01:31:08.872Z,84.70
2023-03-28T01:32:44.782Z,84.53
2023-03-28T01:34:22.273Z,84.32
2023-03-28T01:36:07.539Z,84.10
2023-03-28T01:37:23.662Z,83.66
2023-03-28T01:38:32.125Z,83.78
2023-03-28T01:39:45.102Z,83.99
2023-03-28T01:40:55.102Z,84.10
2023-03-28T01:42:04.521Z,84.10
2023-03-28T01:43:18.201Z,84.38
2023-03-28T01:44:31.820Z,84.21
2023-03-28T01:45:45.954Z,84.98
2023-03-28T01:47:00.235Z,84.86
2023-03-28T01:48:07.232Z,84.40
2023-03-28T01:49:15.387Z,84.50
2023-03-28T01:50:23.211Z,84.53
2023-03-28T01:51:35.614Z,84.18
2023-03-28T01:52:46.637Z,84.07
2023-03-28T01:53:57.104Z,84.15
2023-03-28T01:55:07.111Z,83.75
2023-03-28T01:56:15.620Z,83.81
2023-03-28T01:57:23.797Z,84.05
2023-03-28T01:58:34.967Z,84.07
2023-03-28T01:59:41.236Z,83.97
2023-03-28T02:00:47.958Z,84.19
2023-03-28T02:01:56.117Z,84.25
2023-03-28T02:03:03.180Z,83.52
2023-03-28T02:04:20.384Z,84.26
2023-03-28T02:05:26.058Z,84.73
2023-03-28T02:06:30.740Z,84.20
2023-03-28T02:07:34.305Z,84.46
2023-03-28T02:08:41.061Z,84.90
2023-03-28T02:09:45.727Z,86.19
2023-03-28T02:10:49.692Z,86.56
2023-03-28T02:11:57.797Z,86.62
2023-03-28T02:13:03.859Z,86.85
2023-03-28T02:14:11.432Z,87.32
2023-03-28T02:15:16.342Z,87.39
2023-03-28T02:16:22.278Z,87.57
2023-03-28T02:17:27.778Z,87.73
2023-03-28T02:18:35.159Z,88.04
2023-03-28T02:19:38.537Z,87.70
2023-03-28T02:20:43.759Z,87.79
2023-03-28T02:21:52.310Z,87.65
2023-03-28T02:23:00.399Z,88.25
2023-03-28T02:24:03.661Z,88.01
2023-03-28T02:25:07.209Z,88.09
2023-03-28T02:26:09.695Z,88.20
2023-03-28T02:27:12.252Z,88.27
2023-03-28T02:28:14.630Z,88.33
2023-03-28T02:29:17.993Z,88.28
2023-03-28T02:30:21.133Z,88.48
2023-03-28T02:31:24.821Z,88.02
2023-03-28T02:32:26.310Z,88.52
2023-03-28T02:33:37.595Z,88.65
2023-03-28T02:34:39.165Z,88.71
2023-03-28T02:35:51.442Z,88.96
2023-03-28T02:37:11.862Z,88.54
2023-03-28T02:38:23.127Z,88.34
2023-03-28T02:39:39.327Z,88.51
2023-03-28T02:40:53.392Z,88.77
2023-03-28T02:42:12.965Z,88.73
2023-03-28T02:43:42.382Z,89.29
2023-03-28T02:45:09.907Z,88.84
2023-03-28T02:46:29.888Z,88.62
2023-03-28T02:47:36.496Z,88.79
2023-03-28T02:48:55.139Z,89.40
2023-03-28T02:50:13.931Z,89.12
2023-03-28T02:51:30.165Z,89.43
2023-03-28T02:52:51.949Z,89.65
2023-03-28T02:54:02.931Z,89.32
2023-03-28T02:55:16.921Z,89.82
2023-03-28T02:56:26.712Z,89.83
2023-03-28T02:57:33.848Z,90.22
2023-03-28T02:58:41.088Z,89.86
2023-03-28T02:59:47.683Z,89.68
2023-03-28T03:00:50.204Z,89.19
2023-03-28T03:01:53.223Z,88.92
2023-03-28T03:02:54.778Z,88.55
2023-03-28T03:03:58.408Z,89.00
2023-03-28T03:05:01.738Z,89.03
2023-03-28T03:06:04.436Z,89.35
2023-03-28T03:07:08.957Z,89.55
2023-03-28T03:08:11.737Z,89.41
2023-03-28T03:09:13.302Z,89.12
2023-03-28T03:10:17.982Z,88.57
2023-03-28T03:11:22.675Z,88.78
2023-03-28T03:12:25.262Z,88.78
2023-03-28T03:13:26.879Z,89.02
2023-03-28T03:14:29.316Z,89.44
2023-03-28T03:15:30.930Z,88.71
2023-03-28T03:16:34.438Z,88.88
2023-03-28T03:17:36.756Z,88.89
2023-03-28T03:18:39.392Z,89.02
2023-03-28T03:19:43.141Z,88.94
2023-03-28T03:20:46.583Z,88.72
2023-03-28T03:21:49.567Z,88.65
2023-03-28T03:22:52.143Z,89.21
2023-03-28T03:23:53.686Z,89.78
2023-03-28T03:24:59.280Z,90.05
2023-03-28T03:26:02.362Z,90.46
2023-03-28T03:27:05.302Z,89.98
2023-03-28T03:28:06.826Z,89.41
2023-03-28T03:29:09.276Z,88.84
2023-03-28T03:30:11.880Z,89.07
2023-03-28T03:31:14.419Z,89.09
2023-03-28T03:32:15.952Z,89.31
2023-03-28T03:33:18.580Z,89.18
2023-03-28T03:34:20.785Z,89.27
2023-03-28T03:35:23.399Z,89.11
2023-03-28T03:36:27.105Z,88.79
2023-03-28T03:37:29.603Z,88.20
2023-03-28T03:38:31.133Z,88.49
2023-03-28T03:39:33.641Z,88.06
2023-03-28T03:40:35.330Z,87.86
2023-03-28T03:41:39.230Z,88.40
2023-03-28T03:42:41.101Z,88.14
2023-03-28T03:43:45.222Z,88.66
2023-03-28T03:44:48.296Z,88.50
2023-03-28T03:45:50.844Z,88.17
2023-03-28T03:46:52.464Z,87.90
2023-03-28T03:47:55.118Z,87.75
2023-03-28T03:48:56.648Z,87.41
2023-03-28T03:49:59.144Z,87.17
2023-03-28T03:51:00.794Z,87.64
2023-03-28T03:52:03.393Z,87.53
2023-03-28T03:53:05.004Z,87.59
2023-03-28T03:54:07.516Z,87.38
2023-03-28T03:55:09.570Z,86.97
2023-03-28T03:56:12.069Z,86.98
2023-03-28T03:57:15.551Z,86.54
2023-03-28T03:58:20.382Z,87.20
2023-03-28T03:59:22.729Z,87.22
2023-03-28T04:00:25.710Z,87.40
2023-03-28T04:01:30.172Z,87.98
2023-03-28T04:02:33.028Z,87.11
2023-03-28T04:03:34.769Z,87.24
2023-03-28T04:04:40.466Z,87.74
2023-03-28T04:05:42.087Z,87.92
2023-03-28T04:06:44.650Z,87.76
2023-03-28T04:07:46.540Z,88.01
2023-03-28T04:08:49.202Z,86.89
2023-03-28T04:09:50.984Z,86.79
2023-03-28T04:10:53.506Z,86.55
2023-03-28T04:11:55.907Z,86.93
2023-03-28T04:12:59.888Z,87.40
2023-03-28T04:14:01.615Z,87.70
2023-03-28T04:15:04.546Z,88.06
2023-03-28T04:16:07.114Z,88.08
2023-03-28T04:17:09.663Z,88.05
2023-03-28T04:18:11.327Z,88.55
2023-03-28T04:19:14.401Z,88.31
2023-03-28T04:20:16.061Z,88.33
2023-03-28T04:21:19.351Z,88.90
2023-03-28T04:22:20.904Z,88.55
2023-03-28T04:23:25.803Z,88.65
2023-03-28T04:24:27.419Z,88.57
2023-03-28T04:25:31.550Z,88.68
2023-03-28T04:26:35.735Z,88.22
2023-03-28T04:27:39.460Z,88.29
2023-03-28T04:28:43.558Z,88.13
2023-03-28T04:29:46.148Z,87.70
2023-03-28T04:30:47.686Z,88.24
2023-03-28T04:31:50.696Z,88.81
2023-03-28T04:32:54.460Z,88.61
2023-03-28T04:34:00.986Z,88.35
2023-03-28T04:35:03.312Z,88.31
2023-03-28T04:36:07.984Z,87.83
2023-03-28T04:37:09.832Z,88.05
2023-03-28T04:38:20.374Z,88.27
2023-03-28T04:39:23.151Z,88.36
2023-03-28T04:40:28.015Z,88.22
2023-03-28T04:41:32.228Z,88.34
2023-03-28T04:42:35.690Z,87.99
2023-03-28T04:43:37.487Z,88.28
2023-03-28T04:44:41.347Z,87.71
2023-03-28T04:45:43.030Z,87.63
2023-03-28T04:46:46.569Z,87.18
2023-03-28T04:47:49.682Z,87.87
2023-03-28T04:48:56.530Z,88.71
2023-03-28T04:49:59.972Z,89.05
2023-03-28T04:51:01.615Z,88.89
2023-03-28T04:52:04.369Z,88.98
2023-03-28T04:53:05.964Z,89.23
2023-03-28T04:54:08.529Z,89.02
2023-03-28T04:55:10.369Z,88.86
2023-03-28T04:56:13.857Z,88.90
2023-03-28T04:57:15.711Z,88.11
2023-03-28T04:58:19.291Z,88.12
2023-03-28T04:59:21.506Z,88.31
2023-03-28T05:00:26.173Z,88.18
2023-03-28T05:01:27.813Z,88.53
2023-03-28T05:02:30.476Z,88.15
2023-03-28T05:03:32.167Z,88.24
2023-03-28T05:04:34.890Z,87.94
2023-03-28T05:05:36.416Z,88.36
2023-03-28T05:06:41.677Z,88.58
2023-03-28T05:07:43.393Z,88.49
2023-03-28T05:08:45.998Z,88.66
2023-03-28T05:09:48.708Z,88.58
2023-03-28T05:10:51.148Z,88.98
2023-03-28T05:11:53.642Z,88.71
2023-03-28T05:12:55.371Z,88.72
2023-03-28T05:13:57.930Z,88.83
2023-03-28T05:14:59.618Z,88.58
2023-03-28T05:16:03.705Z,87.90
2023-03-28T05:17:05.222Z,88.39
2023-03-28T05:18:07.787Z,88.56
2023-03-28T05:19:10.066Z,88.16
2023-03-28T05:20:13.487Z,88.53
2023-03-28T05:21:15.180Z,89.01
2023-03-28T05:22:17.936Z,88.42
2023-03-28T05:23:20.827Z,88.91
2023-03-28T05:24:22.497Z,88.50
2023-03-28T05:25:26.138Z,88.25
2023-03-28T05:26:30.198Z,88.16
2023-03-28T05:27:33.496Z,88.37
2023-03-28T05:28:36.033Z,88.40
2023-03-28T05:29:37.742Z,88.36
2023-03-28T05:30:40.311Z,88.36
2023-03-28T05:31:43.172Z,87.70
2023-03-28T05:32:46.021Z,87.73
2023-03-28T05:33:48.584Z,87.20
2023-03-28T05:34:50.118Z,87.28
2023-03-28T05:35:53.639Z,88.07
2023-03-28T05:36:59.352Z,88.44
2023-03-28T05:38:02.533Z,88.91
2023-03-28T05:39:07.992Z,88.62
2023-03-28T05:40:43.621Z,88.81
2023-03-28T05:41:45.179Z,89.50
2023-03-28T05:42:47.807Z,89.97
2023-03-28T05:43:50.337Z,89.96
2023-03-28T05:44:51.910Z,89.90
2023-03-28T05:45:54.693Z,89.25
2023-03-28T05:46:57.678Z,89.42
2023-03-28T05:48:00.278Z,89.44
2023-03-28T05:49:01.953Z,89.14
2023-03-28T05:50:05.418Z,89.15
2023-03-28T05:51:08.162Z,88.47
2023-03-28T05:52:09.884Z,87.87
2023-03-28T05:53:12.718Z,87.04
2023-03-28T05:54:14.317Z,87.34
2023-03-28T05:55:16.887Z,87.75
2023-03-28T05:56:20.706Z,87.54
2023-03-28T05:57:23.712Z,87.87
2023-03-28T05:58:25.448Z,87.55
2023-03-28T05:59:28.184Z,88.05
2023-03-28T06:00:45.061Z,88.05
2023-03-28T06:01:48.702Z,87.66
2023-03-28T06:02:54.792Z,87.35
2023-03-28T06:03:57.236Z,86.58
2023-03-28T06:05:00.220Z,86.77
2023-03-28T06:06:02.051Z,86.96
2023-03-28T06:07:05.168Z,87.40
2023-03-28T06:08:09.175Z,87.64
2023-03-28T06:09:12.155Z,87.84
2023-03-28T06:10:15.176Z,87.76
2023-03-28T06:11:19.654Z,88.26
2023-03-28T06:12:21.242Z,87.91
2023-03-28T06:13:23.942Z,88.69
2023-03-28T06:14:25.947Z,88.57
2023-03-28T06:15:28.483Z,87.77
2023-03-28T06:16:31.142Z,88.24
2023-03-28T06:17:34.150Z,88.35
2023-03-28T06:18:37.223Z,88.27
2023-03-28T06:19:39.945Z,88.85
2023-03-28T06:20:42.466Z,88.87
2023-03-28T06:21:44.142Z,89.48
2023-03-28T06:22:46.640Z,88.85
2023-03-28T06:23:51.575Z,88.72
2023-03-28T06:24:53.523Z,88.69
2023-03-28T06:25:56.205Z,89.06
2023-03-28T06:26:58.010Z,88.63
2023-03-28T06:28:00.682Z,88.15
2023-03-28T06:29:02.241Z,87.13
2023-03-28T06:30:05.703Z,87.22
2023-03-28T06:31:07.331Z,86.63
2023-03-28T06:32:09.844Z,87.27
2023-03-28T06:33:12.327Z,86.50
2023-03-28T06:34:15.379Z,86.16
2023-03-28T06:35:18.289Z,85.82
2023-03-28T06:36:20.180Z,84.58
2023-03-28T06:37:22.645Z,84.55
2023-03-28T06:38:24.312Z,84.34
2023-03-28T06:39:27.481Z,84.71
2023-03-28T06:40:30.047Z,84.52
2023-03-28T06:41:31.847Z,83.97
2023-03-28T06:42:34.478Z,84.25
2023-03-28T06:43:36.914Z,84.57
2023-03-28T06:44:38.470Z,85.39
2023-03-28T06:45:41.988Z,85.53
2023-03-28T06:46:43.577Z,85.15
2023-03-28T06:47:48.572Z,84.74
2023-03-28T06:48:50.174Z,84.31
2023-03-28T06:49:54.002Z,83.66
2023-03-28T06:50:55.596Z,83.54
2023-03-28T06:51:58.233Z,83.11
2023-03-28T06:52:59.771Z,83.10
2023-03-28T06:54:03.161Z,82.83
2023-03-28T06:55:05.555Z,82.63
2023-03-28T06:56:09.297Z,82.47
2023-03-28T06:57:11.820Z,82.80
2023-03-28T06:58:13.347Z,83.20
2023-03-28T06:59:15.813Z,83.33
2023-03-28T07:00:18.470Z,83.50
2023-03-28T07:01:21.833Z,83.33
2023-03-28T07:02:23.588Z,83.48
2023-03-28T07:03:26.750Z,84.17
2023-03-28T07:04:30.152Z,84.12
2023-03-28T07:05:42.174Z,83.77
2023-03-28T07:06:45.160Z,83.57
2023-03-28T07:07:51.014Z,83.05
2023-03-28T07:08:53.784Z,84.71
2023-03-28T07:09:55.302Z,85.37
2023-03-28T07:10:58.219Z,83.92
2023-03-28T07:12:00.759Z,83.87
2023-03-28T07:13:02.321Z,82.28
2023-03-28T07:14:04.921Z,82.24
2023-03-28T07:15:07.469Z,81.39
2023-03-28T07:16:13.568Z,82.10
2023-03-28T07:17:16.286Z,81.25
2023-03-28T07:18:18.489Z,81.03
2023-03-28T07:19:21.095Z,81.39
2023-03-28T07:20:23.817Z,82.29
2023-03-28T07:21:32.522Z,81.15
2023-03-28T07:22:35.076Z,79.45
2023-03-28T07:23:36.821Z,80.27
2023-03-28T07:24:41.028Z,79.76
2023-03-28T07:25:42.846Z,78.96
2023-03-28T07:26:46.065Z,78.90
2023-03-28T07:27:47.718Z,79.17
2023-03-28T07:28:50.226Z,80.09
2023-03-28T07:29:52.780Z,80.23
2023-03-28T07:30:55.207Z,79.73
2023-03-28T07:31:57.851Z,80.17
2023-03-28T07:33:13.019Z,79.02
2023-03-28T07:34:21.259Z,77.89
2023-03-28T07:35:22.783Z,77.80
2023-03-28T07:36:27.837Z,78.37
2023-03-28T07:37:29.427Z,77.89
2023-03-28T07:38:31.875Z,78.24
2023-03-28T07:39:34.478Z,77.86
2023-03-28T07:40:37.105Z,79.43
2023-03-28T07:41:39.781Z,75.52
2023-03-28T07:42:42.901Z,76.23
2023-03-28T07:43:45.581Z,76.70
2023-03-28T07:44:47.116Z,76.74
2023-03-28T07:45:49.746Z,77.82
2023-03-28T07:46:52.842Z,76.97
2023-03-28T07:47:54.416Z,76.54
2023-03-28T07:48:57.286Z,76.19
2023-03-28T07:49:59.930Z,74.35
2023-03-28T07:51:01.907Z,75.18
2023-03-28T07:52:06.046Z,74.92
2023-03-28T07:53:08.519Z,74.25
2023-03-28T07:54:17.452Z,74.50
2023-03-28T07:55:20.197Z,74.71
2023-03-28T07:56:21.785Z,72.96
2023-03-28T07:57:24.307Z,72.37
2023-03-28T07:58:27.106Z,71.38
2023-03-28T07:59:28.675Z,72.11
2023-03-28T08:00:31.158Z,72.87
2023-03-28T08:01:33.640Z,72.94
2023-03-28T08:02:36.247Z,72.55
2023-03-28T08:03:38.811Z,72.33
2023-03-28T08:04:44.380Z,71.50
2023-03-28T08:05:51.568Z,71.40
2023-03-28T08:06:54.483Z,71.51
2023-03-28T08:07:58.539Z,71.11
2023-03-28T08:09:01.120Z,70.26
2023-03-28T08:10:03.345Z,71.29
2023-03-28T08:11:06.738Z,71.09
2023-03-28T08:12:09.293Z,71.58
2023-03-28T08:13:10.912Z,71.38
2023-03-28T08:14:16.284Z,71.30
2023-03-28T08:15:17.983Z,70.49
2023-03-28T08:16:20.702Z,68.70
2023-03-28T08:17:22.894Z,69.77
2023-03-28T08:18:26.454Z,68.93
2023-03-28T08:19:29.226Z,69.37
2023-03-28T08:20:30.914Z,70.60
2023-03-28T08:21:35.248Z,69.50
2023-03-28T08:22:36.899Z,68.28
2023-03-28T08:23:40.874Z,68.75
2023-03-28T08:24:43.641Z,68.50
2023-03-28T08:25:46.343Z,67.73
2023-03-28T08:26:48.893Z,67.93
2023-03-28T08:27:50.480Z,66.51
2023-03-28T08:28:54.622Z,67.87
2023-03-28T08:29:56.250Z,67.63
2023-03-28T08:30:59.164Z,67.60
2023-03-28T08:32:00.885Z,68.09
2023-03-28T08:33:04.602Z,66.75
2023-03-28T08:34:07.362Z,66.29
2023-03-28T08:35:10.805Z,65.96
2023-03-28T08:36:14.959Z,66.79
2023-03-28T08:37:16.897Z,66.21
2023-03-28T08:38:19.692Z,67.25
2023-03-28T08:39:23.426Z,66.22
2023-03-28T08:40:29.098Z,67.40
2023-03-28T08:41:52.645Z,66.92
2023-03-28T08:43:07.956Z,65.88
2023-03-28T08:44:24.733Z,65.59
2023-03-28T08:45:42.907Z,64.50
2023-03-28T08:46:47.185Z,64.54
2023-03-28T08:47:55.255Z,65.69
2023-03-28T08:49:02.056Z,65.55
2023-03-28T08:50:12.968Z,64.36
2023-03-28T08:51:21.280Z,66.99
2023-03-28T08:52:23.704Z,65.15
2023-03-28T08:53:34.414Z,66.19
2023-03-28T08:54:46.112Z,66.56
2023-03-28T08:55:51.068Z,64.26
2023-03-28T08:56:56.374Z,64.04
2023-03-28T08:57:59.825Z,64.66
2023-03-28T08:59:07.509Z,66.04
2023-03-28T09:00:19.346Z,66.40
2023-03-28T09:01:23.576Z,64.18
2023-03-28T09:02:28.439Z,63.88
2023-03-28T09:03:34.259Z,65.29
2023-03-28T09:04:36.937Z,64.05
2023-03-28T09:05:46.975Z,65.04
2023-03-28T09:06:50.760Z,62.97
2023-03-28T09:07:57.010Z,61.57
2023-03-28T09:09:16.196Z,60.71
2023-03-28T09:10:29.858Z,61.74
2023-03-28T09:11:44.184Z,61.68
2023-03-28T09:13:07.077Z,60.71
2023-03-28T09:14:28.361Z,61.32
2023-03-28T09:15:45.890Z,62.58
2023-03-28T09:17:00.962Z,61.10
2023-03-28T09:18:37.082Z,62.63
2023-03-28T09:19:55.949Z,60.45
2023-03-28T09:21:05.687Z,61.63
2023-03-28T09:22:30.167Z,61.54
2023-03-28T09:24:18.336Z,61.19
2023-03-28T09:25:32.219Z,61.40
2023-03-28T09:26:36.178Z,60.87
2023-03-28T09:27:49.873Z,61.15
2023-03-28T09:28:57.591Z,61.53
2023-03-28T09:30:17.788Z,62.88
2023-03-28T09:31:27.829Z,61.41
2023-03-28T09:32:36.453Z,61.85
2023-03-28T09:33:40.883Z,61.57
2023-03-28T09:34:48.654Z,62.07
2023-03-28T09:35:51.207Z,63.09
2023-03-28T09:36:57.163Z,63.07
2023-03-28T09:38:03.819Z,61.65
2023-03-28T09:39:26.998Z,62.57
2023-03-28T09:40:32.249Z,62.53
2023-03-28T09:41:43.440Z,62.09
2023-03-28T09:42:56.857Z,62.40
2023-03-28T09:44:03.150Z,61.46
2023-03-28T09:45:16.744Z,61.72
2023-03-28T09:46:25.326Z,62.08
2023-03-28T09:47:27.327Z,62.72
2023-03-28T09:48:32.081Z,63.34
2023-03-28T09:49:33.755Z,63.39
2023-03-28T09:50:36.452Z,63.87
2023-03-28T09:51:39.049Z,63.82
2023-03-28T09:52:41.517Z,63.08
2023-03-28T09:53:44.302Z,62.57
2023-03-28T09:54:46.921Z,63.59
2023-03-28T09:56:03.576Z,64.21
2023-03-28T09:57:07.197Z,64.17
2023-03-28T09:58:11.173Z,63.98
2023-03-28T09:59:27.018Z,64.20
2023-03-28T10:00:33.814Z,63.15
2023-03-28T10:01:41.650Z,61.83
2023-03-28T10:02:43.348Z,62.58
2023-03-28T10:03:53.304Z,62.26
2023-03-28T10:04:55.312Z,60.60
2023-03-28T10:05:59.350Z,61.88
2023-03-28T10:07:19.659Z,61.69
2023-03-28T10:08:29.320Z,60.89
2023-03-28T10:09:30.871Z,61.68
2023-03-28T10:10:33.468Z,60.53
2023-03-28T10:11:49.842Z,61.11
2023-03-28T10:12:57.385Z,60.85
2023-03-28T10:14:00.047Z,60.87
2023-03-28T10:15:01.893Z,60.43
2023-03-28T10:16:06.347Z,59.97
2023-03-28T10:17:13.401Z,59.76
2023-03-28T10:18:18.490Z,60.37
2023-03-28T10:19:24.873Z,61.05
2023-03-28T10:20:28.450Z,61.85
2023-03-28T10:21:32.924Z,61.58
2023-03-28T10:22:38.412Z,60.76
2023-03-28T10:23:42.133Z,60.93
2023-03-28T10:24:47.697Z,61.27
2023-03-28T10:25:52.008Z,61.14
2023-03-28T10:26:58.816Z,61.38
2023-03-28T10:28:00.776Z,61.55
2023-03-28T10:29:07.589Z,62.19
2023-03-28T10:30:18.299Z,62.44
2023-03-28T10:31:26.343Z,61.46
2023-03-28T10:32:31.225Z,62.21
2023-03-28T10:33:35.185Z,60.88
2023-03-28T10:34:37.059Z,61.39
2023-03-28T10:35:41.532Z,61.56
2023-03-28T10:36:45.217Z,60.65
2023-03-28T10:37:48.267Z,60.21
2023-03-28T10:38:51.120Z,59.09
2023-03-28T10:40:01.092Z,56.49
2023-03-28T10:41:06.695Z,55.55
2023-03-28T10:42:11.724Z,52.58
2023-03-28T10:43:16.335Z,51.23
2023-03-28T10:44:19.831Z,50.65
2023-03-28T10:45:24.744Z,51.45
2023-03-28T10:46:31.132Z,51.71
2023-03-28T10:47:33.890Z,51.80
2023-03-28T10:48:39.184Z,52.37
2023-03-28T10:49:44.265Z,53.19
2023-03-28T10:50:50.031Z,54.23
2023-03-28T10:51:52.599Z,54.11
2023-03-28T10:53:10.633Z,55.38
2023-03-28T10:54:33.305Z,55.83
2023-03-28T10:55:40.528Z,53.36
2023-03-28T10:56:52.729Z,52.23
2023-03-28T10:58:14.878Z,51.70
2023-03-28T10:59:47.132Z,49.79
2023-03-28T11:00:59.500Z,47.44
2023-03-28T11:02:22.045Z,48.30
2023-03-28T11:03:39.164Z,52.28
2023-03-28T11:04:56.316Z,53.44
2023-03-28T11:06:09.425Z,54.98
2023-03-28T11:07:18.742Z,55.75
2023-03-28T11:08:34.834Z,55.77
2023-03-28T11:09:42.095Z,51.78
2023-03-28T11:10:57.314Z,49.83
2023-03-28T11:12:10.233Z,48.71
2023-03-28T11:13:29.517Z,49.19
2023-03-28T11:14:45.849Z,49.63
2023-03-28T11:15:59.193Z,47.96
2023-03-28T11:17:08.962Z,47.65
2023-03-28T11:18:24.813Z,48.22
2023-03-28T11:19:43.382Z,48.29
2023-03-28T11:20:55.184Z,49.01
2023-03-28T11:22:05.770Z,49.91
2023-03-28T11:23:24.530Z,50.65
2023-03-28T11:24:35.879Z,52.62
2023-03-28T11:25:45.968Z,52.06
2023-03-28T11:27:05.055Z,52.70
2023-03-28T11:28:27.523Z,52.79
2023-03-28T11:29:43.615Z,53.25
2023-03-28T11:30:51.767Z,54.54
2023-03-28T11:32:05.798Z,54.90
2023-03-28T11:33:15.680Z,55.48
2023-03-28T11:34:25.103Z,55.80
2023-03-28T11:35:32.634Z,55.69
2023-03-28T11:36:42.694Z,55.61
2023-03-28T11:37:52.244Z,52.57
2023-03-28T11:39:02.145Z,49.49
2023-03-28T11:40:12.105Z,48.45
2023-03-28T11:41:18.415Z,47.93
2023-03-28T11:42:28.477Z,48.66
2023-03-28T11:43:37.736Z,49.30
2023-03-28T11:44:43.968Z,50.25
2023-03-28T11:45:53.017Z,51.38
2023-03-28T11:46:57.783Z,52.34
2023-03-28T11:48:06.264Z,53.31
2023-03-28T11:49:18.833Z,50.65
2023-03-28T11:50:23.720Z,48.57
2023-03-28T11:51:32.028Z,46.63
2023-03-28T11:52:38.272Z,44.69
2023-03-28T11:53:45.140Z,42.96
2023-03-28T11:54:51.110Z,41.92
2023-03-28T11:56:02.687Z,42.11
2023-03-28T11:57:09.295Z,40.49
2023-03-28T11:58:18.298Z,40.89
2023-03-28T11:59:28.161Z,39.10
2023-03-28T12:00:34.785Z,39.03
2023-03-28T12:01:43.582Z,39.19
2023-03-28T12:02:52.135Z,39.24
2023-03-28T12:04:02.344Z,40.43
2023-03-28T12:05:10.995Z,41.17
2023-03-28T12:06:23.434Z,42.40
2023-03-28T12:07:33.209Z,42.42
2023-03-28T12:08:42.525Z,44.84
2023-03-28T12:09:59.862Z,46.01
2023-03-28T12:11:06.317Z,47.23
2023-03-28T12:12:12.841Z,48.45
2023-03-28T12:13:20.058Z,47.63
2023-03-28T12:14:34.687Z,45.41
2023-03-28T12:15:43.954Z,45.99
2023-03-28T12:16:49.638Z,45.11
2023-03-28T12:17:57.768Z,47.21
2023-03-28T12:19:03.316Z,45.52
2023-03-28T12:20:08.343Z,44.25
2023-03-28T12:21:16.802Z,43.18
2023-03-28T12:22:26.637Z,45.53
2023-03-28T12:23:39.494Z,44.25
2023-03-28T12:24:47.873Z,46.29
2023-03-28T12:25:58.606Z,46.21
2023-03-28T12:27:10.775Z,47.77
2023-03-28T12:28:22.126Z,47.94
2023-03-28T12:29:31.907Z,48.78
2023-03-28T12:30:40.488Z,49.35
2023-03-28T12:31:48.732Z,49.38
2023-03-28T12:32:59.551Z,49.84
2023-03-28T12:34:08.948Z,50.83
2023-03-28T12:35:15.557Z,50.92
2023-03-28T12:36:26.443Z,51.84
2023-03-28T12:37:34.244Z,50.99
2023-03-28T12:38:44.347Z,47.08
2023-03-28T12:39:54.444Z,45.11
2023-03-28T12:41:01.859Z,44.52
2023-03-28T12:42:07.732Z,45.66
2023-03-28T12:43:15.407Z,47.57
2023-03-28T12:44:22.852Z,47.15
2023-03-28T12:45:31.153Z,48.63
2023-03-28T12:46:38.125Z,49.87
2023-03-28T12:47:44.810Z,50.58
2023-03-28T12:48:52.416Z,50.34
2023-03-28T12:49:57.902Z,47.62
2023-03-28T12:51:05.564Z,45.58
2023-03-28T12:52:12.999Z,42.89
2023-03-28T12:53:17.145Z,42.85
2023-03-28T12:54:25.925Z,42.12
2023-03-28T12:55:46.540Z,42.73
2023-03-28T12:57:00.998Z,42.93
2023-03-28T12:58:19.564Z,44.24
2023-03-28T12:59:52.233Z,46.32
2023-03-28T13:01:22.242Z,46.65
2023-03-28T13:02:32.592Z,47.38
2023-03-28T13:03:44.140Z,48.21
2023-03-28T13:04:56.534Z,49.89
2023-03-28T13:06:09.561Z,50.38
2023-03-28T13:07:19.781Z,50.33
2023-03-28T13:08:28.065Z,51.12
2023-03-28T13:10:01.940Z,51.32
2023-03-28T13:11:09.375Z,52.00
2023-03-28T13:12:34.298Z,52.48
2023-03-28T13:13:50.075Z,52.81
2023-03-28T13:15:01.001Z,53.04
2023-03-28T13:16:08.113Z,54.39
2023-03-28T13:17:21.783Z,54.65
2023-03-28T13:18:31.482Z,54.43
2023-03-28T13:19:48.441Z,54.87
2023-03-28T13:20:52.029Z,55.33
2023-03-28T13:21:57.652Z,55.03
2023-03-28T13:23:04.730Z,55.07
2023-03-28T13:24:27.856Z,53.81
2023-03-28T13:25:37.015Z,51.02
2023-03-28T13:26:54.683Z,48.67
2023-03-28T13:28:00.544Z,48.87
2023-03-28T13:29:03.323Z,47.99
2023-03-28T13:30:08.452Z,47.03
2023-03-28T13:31:20.543Z,48.55
2023-03-28T13:32:24.408Z,47.75
2023-03-28T13:33:29.066Z,46.96
2023-03-28T13:34:34.116Z,47.03
2023-03-28T13:35:45.665Z,48.10
2023-03-28T13:36:51.796Z,47.54
2023-03-28T13:37:53.355Z,48.33
2023-03-28T13:39:20.493Z,49.60
2023-03-28T13:40:54.620Z,50.51
2023-03-28T13:42:00.271Z,51.39
2023-03-28T13:43:02.865Z,51.38
2023-03-28T13:44:09.669Z,51.79
2023-03-28T13:45:21.108Z,51.66
2023-03-28T13:46:28.912Z,51.99
2023-03-28T13:47:36.283Z,51.70
2023-03-28T13:48:44.712Z,51.72
2023-03-28T13:49:51.421Z,52.02
2023-03-28T13:50:53.659Z,53.46
2023-03-28T13:51:59.700Z,53.01
2023-03-28T13:53:01.709Z,52.89
2023-03-28T13:54:04.617Z,53.11
2023-03-28T13:55:18.588Z,52.56
2023-03-28T13:56:24.887Z,53.17
2023-03-28T13:57:28.263Z,53.25
2023-03-28T13:58:30.911Z,53.96
2023-03-28T13:59:36.723Z,54.78
2023-03-28T14:00:38.464Z,53.14
2023-03-28T14:01:49.454Z,53.06
2023-03-28T14:02:54.371Z,52.70
2023-03-28T14:03:56.397Z,52.71
2023-03-28T14:05:16.124Z,53.79
2023-03-28T14:06:24.225Z,53.63
2023-03-28T14:07:27.516Z,54.11
2023-03-28T14:08:30.123Z,53.42
2023-03-28T14:09:34.918Z,53.10
2023-03-28T14:10:41.416Z,52.88
2023-03-28T14:11:45.122Z,52.14
2023-03-28T14:12:46.921Z,52.61
2023-03-28T14:13:50.682Z,53.74
2023-03-28T14:14:55.890Z,53.62
2023-03-28T14:15:57.658Z,53.78
2023-03-28T14:17:05.183Z,53.56
2023-03-28T14:18:12.258Z,54.32